sensor_id;sensor_type;location;lat;lon;timestamp;temperature;humidity
18741;DHT22;9499;52.472;13.448;2023-08-07T00:01:34;15.60;83.70
18741;DHT22;9499;52.472;13.448;2023-08-07T00:04:03;15.70;79.50
18741;DHT22;9499;52.472;13.448;2023-08-07T00:06:30;15.70;81.60
18741;DHT22;9499;52.472;13.448;2023-08-07T00:08:56;15.60;78.30
18741;DHT22;9499;52.472;13.448;2023-08-07T00:11:23;15.60;83.80
18741;DHT22;9499;52.472;13.448;2023-08-07T00:13:49;15.60;76.80
18741;DHT22;9499;52.472;13.448;2023-08-07T00:16:16;15.60;99.30
18741;DHT22;9499;52.472;13.448;2023-08-07T00:18:43;15.60;94.20
18741;DHT22;9499;52.472;13.448;2023-08-07T00:21:13;15.60;92.00
18741;DHT22;9499;52.472;13.448;2023-08-07T00:23:40;15.60;90.80
18741;DHT22;9499;52.472;13.448;2023-08-07T00:26:06;15.60;98.10
18741;DHT22;9499;52.472;13.448;2023-08-07T00:28:33;15.60;99.90
18741;DHT22;9499;52.472;13.448;2023-08-07T00:30:59;15.50;99.90
18741;DHT22;9499;52.472;13.448;2023-08-07T00:33:26;15.50;99.90
18741;DHT22;9499;52.472;13.448;2023-08-07T00:35:54;15.50;99.90
18741;DHT22;9499;52.472;13.448;2023-08-07T00:38:21;15.50;99.90
18741;DHT22;9499;52.472;13.448;2023-08-07T00:40:48;15.50;99.90
18741;DHT22;9499;52.472;13.448;2023-08-07T00:43:14;15.50;99.90
18741;DHT22;9499;52.472;13.448;2023-08-07T00:45:46;15.50;99.90
18741;DHT22;9499;52.472;13.448;2023-08-07T00:48:13;15.50;99.90
18741;DHT22;9499;52.472;13.448;2023-08-07T00:50:41;15.50;99.90
18741;DHT22;9499;52.472;13.448;2023-08-07T00:53:09;15.50;99.90
18741;DHT22;9499;52.472;13.448;2023-08-07T00:55:37;15.50;99.90
18741;DHT22;9499;52.472;13.448;2023-08-07T00:58:04;15.40;99.90
18741;DHT22;9499;52.472;13.448;2023-08-07T01:00:31;15.50;99.90
18741;DHT22;9499;52.472;13.448;2023-08-07T01:02:59;15.40;99.90
18741;DHT22;9499;52.472;13.448;2023-08-07T01:05:25;15.40;99.90
18741;DHT22;9499;52.472;13.448;2023-08-07T01:07:53;15.40;99.90
18741;DHT22;9499;52.472;13.448;2023-08-07T01:10:23;15.50;99.90
18741;DHT22;9499;52.472;13.448;2023-08-07T01:12:57;15.50;99.90
18741;DHT22;9499;52.472;13.448;2023-08-07T01:15:30;15.50;99.90
18741;DHT22;9499;52.472;13.448;2023-08-07T01:17:57;15.40;99.90
18741;DHT22;9499;52.472;13.448;2023-08-07T01:20:24;15.40;99.90
18741;DHT22;9499;52.472;13.448;2023-08-07T01:22:52;15.40;99.90
18741;DHT22;9499;52.472;13.448;2023-08-07T01:25:18;15.40;99.90
18741;DHT22;9499;52.472;13.448;2023-08-07T01:27:52;15.40;99.90
18741;DHT22;9499;52.472;13.448;2023-08-07T01:30:25;15.40;99.90
18741;DHT22;9499;52.472;13.448;2023-08-07T01:32:59;15.30;99.90
18741;DHT22;9499;52.472;13.448;2023-08-07T01:35:34;15.40;99.90
18741;DHT22;9499;52.472;13.448;2023-08-07T01:38:03;15.40;99.90
18741;DHT22;9499;52.472;13.448;2023-08-07T01:40:31;15.40;99.90
18741;DHT22;9499;52.472;13.448;2023-08-07T01:42:58;15.40;99.90
18741;DHT22;9499;52.472;13.448;2023-08-07T01:45:25;15.40;99.90
18741;DHT22;9499;52.472;13.448;2023-08-07T01:47:53;15.40;99.90
18741;DHT22;9499;52.472;13.448;2023-08-07T01:50:21;15.40;99.90
18741;DHT22;9499;52.472;13.448;2023-08-07T01:52:47;15.30;99.90
18741;DHT22;9499;52.472;13.448;2023-08-07T01:55:17;15.40;99.90
18741;DHT22;9499;52.472;13.448;2023-08-07T01:57:44;15.40;99.90
18741;DHT22;9499;52.472;13.448;2023-08-07T02:00:12;15.40;99.90
18741;DHT22;9499;52.472;13.448;2023-08-07T02:02:40;15.40;99.90
18741;DHT22;9499;52.472;13.448;2023-08-07T02:05:07;15.40;99.90
18741;DHT22;9499;52.472;13.448;2023-08-07T02:07:34;15.40;99.90
18741;DHT22;9499;52.472;13.448;2023-08-07T02:10:00;15.30;99.90
18741;DHT22;9499;52.472;13.448;2023-08-07T02:12:28;15.20;99.90
18741;DHT22;9499;52.472;13.448;2023-08-07T02:14:57;15.20;99.90
18741;DHT22;9499;52.472;13.448;2023-08-07T02:17:25;15.20;99.90
18741;DHT22;9499;52.472;13.448;2023-08-07T02:19:51;15.20;99.90
18741;DHT22;9499;52.472;13.448;2023-08-07T02:22:19;15.20;99.90
18741;DHT22;9499;52.472;13.448;2023-08-07T02:24:48;15.30;99.90
18741;DHT22;9499;52.472;13.448;2023-08-07T02:27:15;15.20;99.90
18741;DHT22;9499;52.472;13.448;2023-08-07T02:29:44;15.30;99.90
18741;DHT22;9499;52.472;13.448;2023-08-07T02:32:10;15.30;99.90
18741;DHT22;9499;52.472;13.448;2023-08-07T02:34:37;15.30;99.90
18741;DHT22;9499;52.472;13.448;2023-08-07T02:37:04;15.30;99.90
18741;DHT22;9499;52.472;13.448;2023-08-07T02:39:30;15.20;99.90
18741;DHT22;9499;52.472;13.448;2023-08-07T02:41:57;15.30;99.90
18741;DHT22;9499;52.472;13.448;2023-08-07T02:44:23;15.30;99.90
18741;DHT22;9499;52.472;13.448;2023-08-07T02:46:51;15.30;99.90
18741;DHT22;9499;52.472;13.448;2023-08-07T02:49:17;15.30;99.90
18741;DHT22;9499;52.472;13.448;2023-08-07T02:51:44;15.30;99.90
18741;DHT22;9499;52.472;13.448;2023-08-07T02:54:13;15.40;99.90
18741;DHT22;9499;52.472;13.448;2023-08-07T02:56:40;15.40;99.90
18741;DHT22;9499;52.472;13.448;2023-08-07T02:59:06;15.40;99.90
18741;DHT22;9499;52.472;13.448;2023-08-07T03:01:33;15.30;99.90
18741;DHT22;9499;52.472;13.448;2023-08-07T03:04:01;15.40;99.90
18741;DHT22;9499;52.472;13.448;2023-08-07T03:06:28;15.40;99.90
18741;DHT22;9499;52.472;13.448;2023-08-07T03:08:57;15.40;99.90
18741;DHT22;9499;52.472;13.448;2023-08-07T03:11:23;15.40;99.90
18741;DHT22;9499;52.472;13.448;2023-08-07T03:13:50;15.40;99.90
18741;DHT22;9499;52.472;13.448;2023-08-07T03:16:17;15.40;99.90
18741;DHT22;9499;52.472;13.448;2023-08-07T03:18:43;15.40;99.90
18741;DHT22;9499;52.472;13.448;2023-08-07T03:21:11;15.50;99.90
18741;DHT22;9499;52.472;13.448;2023-08-07T03:23:38;15.50;99.90
18741;DHT22;9499;52.472;13.448;2023-08-07T03:26:08;15.50;99.90
18741;DHT22;9499;52.472;13.448;2023-08-07T03:28:35;15.50;99.90
18741;DHT22;9499;52.472;13.448;2023-08-07T03:31:03;15.40;99.90
18741;DHT22;9499;52.472;13.448;2023-08-07T03:33:29;15.40;99.90
18741;DHT22;9499;52.472;13.448;2023-08-07T03:35:56;15.40;99.90
18741;DHT22;9499;52.472;13.448;2023-08-07T03:38:24;15.40;99.90
18741;DHT22;9499;52.472;13.448;2023-08-07T03:40:51;15.40;99.90
18741;DHT22;9499;52.472;13.448;2023-08-07T03:43:17;15.40;99.90
18741;DHT22;9499;52.472;13.448;2023-08-07T03:45:44;15.40;99.90
18741;DHT22;9499;52.472;13.448;2023-08-07T03:48:10;15.40;99.90
18741;DHT22;9499;52.472;13.448;2023-08-07T03:50:37;15.40;99.90
18741;DHT22;9499;52.472;13.448;2023-08-07T03:53:04;15.40;99.90
18741;DHT22;9499;52.472;13.448;2023-08-07T03:55:33;15.40;99.90
18741;DHT22;9499;52.472;13.448;2023-08-07T03:58:00;15.40;99.90
18741;DHT22;9499;52.472;13.448;2023-08-07T04:00:26;15.40;99.90
18741;DHT22;9499;52.472;13.448;2023-08-07T04:02:54;15.30;99.90
18741;DHT22;9499;52.472;13.448;2023-08-07T04:05:21;15.40;99.90
18741;DHT22;9499;52.472;13.448;2023-08-07T04:07:48;15.40;99.90
18741;DHT22;9499;52.472;13.448;2023-08-07T04:10:16;15.40;99.90
18741;DHT22;9499;52.472;13.448;2023-08-07T04:12:45;15.40;99.90
18741;DHT22;9499;52.472;13.448;2023-08-07T04:15:12;15.40;99.90
18741;DHT22;9499;52.472;13.448;2023-08-07T04:17:39;15.50;99.90
18741;DHT22;9499;52.472;13.448;2023-08-07T04:20:07;15.40;99.90
18741;DHT22;9499;52.472;13.448;2023-08-07T04:22:38;15.50;99.90
18741;DHT22;9499;52.472;13.448;2023-08-07T04:25:06;15.40;99.90
18741;DHT22;9499;52.472;13.448;2023-08-07T04:27:33;15.40;99.90
18741;DHT22;9499;52.472;13.448;2023-08-07T04:30:01;15.40;99.90
18741;DHT22;9499;52.472;13.448;2023-08-07T04:32:28;15.50;99.90
18741;DHT22;9499;52.472;13.448;2023-08-07T04:34:54;15.50;99.90
18741;DHT22;9499;52.472;13.448;2023-08-07T04:37:21;15.50;99.90
18741;DHT22;9499;52.472;13.448;2023-08-07T04:39:48;15.50;99.90
18741;DHT22;9499;52.472;13.448;2023-08-07T04:42:18;15.40;99.90
18741;DHT22;9499;52.472;13.448;2023-08-07T04:44:46;15.50;99.90
18741;DHT22;9499;52.472;13.448;2023-08-07T04:47:15;15.60;99.90
18741;DHT22;9499;52.472;13.448;2023-08-07T04:49:42;15.60;99.90
18741;DHT22;9499;52.472;13.448;2023-08-07T04:52:08;15.60;99.90
18741;DHT22;9499;52.472;13.448;2023-08-07T04:54:35;15.60;99.90
18741;DHT22;9499;52.472;13.448;2023-08-07T04:57:02;15.60;99.90
18741;DHT22;9499;52.472;13.448;2023-08-07T04:59:28;15.60;99.90
18741;DHT22;9499;52.472;13.448;2023-08-07T05:01:58;15.60;99.90
18741;DHT22;9499;52.472;13.448;2023-08-07T05:04:25;15.60;99.90
18741;DHT22;9499;52.472;13.448;2023-08-07T05:06:52;15.60;99.90
18741;DHT22;9499;52.472;13.448;2023-08-07T05:09:18;15.60;99.90
18741;DHT22;9499;52.472;13.448;2023-08-07T05:11:45;15.70;99.90
18741;DHT22;9499;52.472;13.448;2023-08-07T05:14:12;15.70;99.90
18741;DHT22;9499;52.472;13.448;2023-08-07T05:16:39;15.60;99.90
18741;DHT22;9499;52.472;13.448;2023-08-07T05:19:05;15.70;99.90
18741;DHT22;9499;52.472;13.448;2023-08-07T05:21:36;15.70;99.90
18741;DHT22;9499;52.472;13.448;2023-08-07T05:24:03;15.60;99.90
18741;DHT22;9499;52.472;13.448;2023-08-07T05:26:30;15.60;99.90
18741;DHT22;9499;52.472;13.448;2023-08-07T05:28:57;15.60;99.90
18741;DHT22;9499;52.472;13.448;2023-08-07T05:31:24;15.60;99.90
18741;DHT22;9499;52.472;13.448;2023-08-07T05:33:53;15.60;99.90
18741;DHT22;9499;52.472;13.448;2023-08-07T05:36:20;15.60;99.90
18741;DHT22;9499;52.472;13.448;2023-08-07T05:38:48;15.60;99.90
18741;DHT22;9499;52.472;13.448;2023-08-07T05:41:15;15.60;99.90
18741;DHT22;9499;52.472;13.448;2023-08-07T05:43:45;15.60;99.90
18741;DHT22;9499;52.472;13.448;2023-08-07T05:46:11;15.60;99.90
18741;DHT22;9499;52.472;13.448;2023-08-07T05:48:38;15.60;99.90
18741;DHT22;9499;52.472;13.448;2023-08-07T05:51:04;15.70;99.90
18741;DHT22;9499;52.472;13.448;2023-08-07T05:53:32;15.70;99.90
18741;DHT22;9499;52.472;13.448;2023-08-07T05:56:04;15.70;99.90
18741;DHT22;9499;52.472;13.448;2023-08-07T05:58:30;15.70;99.90
18741;DHT22;9499;52.472;13.448;2023-08-07T06:00:57;15.70;99.90
18741;DHT22;9499;52.472;13.448;2023-08-07T06:03:23;15.70;99.90
18741;DHT22;9499;52.472;13.448;2023-08-07T06:05:50;15.70;99.90
18741;DHT22;9499;52.472;13.448;2023-08-07T06:08:16;15.70;99.90
18741;DHT22;9499;52.472;13.448;2023-08-07T06:10:44;15.80;99.90
18741;DHT22;9499;52.472;13.448;2023-08-07T06:13:12;15.90;99.90
18741;DHT22;9499;52.472;13.448;2023-08-07T06:15:41;16.00;99.90
18741;DHT22;9499;52.472;13.448;2023-08-07T06:18:07;16.00;99.90
18741;DHT22;9499;52.472;13.448;2023-08-07T06:20:34;16.10;99.90
18741;DHT22;9499;52.472;13.448;2023-08-07T06:23:00;16.10;99.90
18741;DHT22;9499;52.472;13.448;2023-08-07T06:25:27;16.20;99.90
18741;DHT22;9499;52.472;13.448;2023-08-07T06:27:53;16.30;99.90
18741;DHT22;9499;52.472;13.448;2023-08-07T06:30:21;16.30;99.90
18741;DHT22;9499;52.472;13.448;2023-08-07T06:32:48;16.40;99.90
18741;DHT22;9499;52.472;13.448;2023-08-07T06:35:15;16.50;94.80
18741;DHT22;9499;52.472;13.448;2023-08-07T06:37:41;16.60;56.90
18741;DHT22;9499;52.472;13.448;2023-08-07T06:40:10;16.60;38.50
18741;DHT22;9499;52.472;13.448;2023-08-07T06:42:36;16.70;13.60
18741;DHT22;9499;52.472;13.448;2023-08-07T06:45:05;16.70;11.50
18741;DHT22;9499;52.472;13.448;2023-08-07T06:47:36;16.70;1.00
18741;DHT22;9499;52.472;13.448;2023-08-07T06:50:05;16.70;1.00
18741;DHT22;9499;52.472;13.448;2023-08-07T06:52:32;16.70;1.00
18741;DHT22;9499;52.472;13.448;2023-08-07T06:54:59;16.70;1.00
18741;DHT22;9499;52.472;13.448;2023-08-07T06:57:25;16.70;1.00
18741;DHT22;9499;52.472;13.448;2023-08-07T06:59:52;16.80;1.00
18741;DHT22;9499;52.472;13.448;2023-08-07T07:02:18;16.80;1.00
18741;DHT22;9499;52.472;13.448;2023-08-07T07:04:46;16.90;1.00
18741;DHT22;9499;52.472;13.448;2023-08-07T07:07:13;17.00;1.00
18741;DHT22;9499;52.472;13.448;2023-08-07T07:09:40;17.10;1.00
18741;DHT22;9499;52.472;13.448;2023-08-07T07:12:07;17.10;1.00
18741;DHT22;9499;52.472;13.448;2023-08-07T07:14:34;17.20;1.00
18741;DHT22;9499;52.472;13.448;2023-08-07T07:17:00;17.20;1.00
18741;DHT22;9499;52.472;13.448;2023-08-07T07:19:27;17.30;1.00
18741;DHT22;9499;52.472;13.448;2023-08-07T07:21:54;17.30;1.00
18741;DHT22;9499;52.472;13.448;2023-08-07T07:24:21;17.40;1.00
18741;DHT22;9499;52.472;13.448;2023-08-07T07:26:47;17.40;1.00
18741;DHT22;9499;52.472;13.448;2023-08-07T07:29:16;17.40;1.00
18741;DHT22;9499;52.472;13.448;2023-08-07T07:31:44;17.40;1.00
18741;DHT22;9499;52.472;13.448;2023-08-07T07:34:10;17.50;1.00
18741;DHT22;9499;52.472;13.448;2023-08-07T07:36:37;17.50;1.00
18741;DHT22;9499;52.472;13.448;2023-08-07T07:39:04;17.50;1.00
18741;DHT22;9499;52.472;13.448;2023-08-07T07:41:32;17.50;1.00
18741;DHT22;9499;52.472;13.448;2023-08-07T07:43:58;17.50;1.00
18741;DHT22;9499;52.472;13.448;2023-08-07T07:46:26;17.60;1.00
18741;DHT22;9499;52.472;13.448;2023-08-07T07:48:52;17.60;1.00
18741;DHT22;9499;52.472;13.448;2023-08-07T07:51:19;17.70;1.00
18741;DHT22;9499;52.472;13.448;2023-08-07T07:53:46;17.70;1.00
18741;DHT22;9499;52.472;13.448;2023-08-07T07:56:14;17.60;1.00
18741;DHT22;9499;52.472;13.448;2023-08-07T07:58:41;17.60;1.00
18741;DHT22;9499;52.472;13.448;2023-08-07T08:01:09;17.70;1.00
18741;DHT22;9499;52.472;13.448;2023-08-07T08:03:36;17.80;1.00
18741;DHT22;9499;52.472;13.448;2023-08-07T08:06:03;17.80;1.00
18741;DHT22;9499;52.472;13.448;2023-08-07T08:08:31;17.90;1.00
18741;DHT22;9499;52.472;13.448;2023-08-07T08:11:01;18.00;1.00
18741;DHT22;9499;52.472;13.448;2023-08-07T08:13:29;18.00;1.00
18741;DHT22;9499;52.472;13.448;2023-08-07T08:15:56;18.10;1.00
18741;DHT22;9499;52.472;13.448;2023-08-07T08:18:22;18.10;1.00
18741;DHT22;9499;52.472;13.448;2023-08-07T08:20:49;18.10;1.00
18741;DHT22;9499;52.472;13.448;2023-08-07T08:23:17;18.10;1.00
18741;DHT22;9499;52.472;13.448;2023-08-07T08:25:43;18.10;1.00
18741;DHT22;9499;52.472;13.448;2023-08-07T08:28:10;18.10;1.00
18741;DHT22;9499;52.472;13.448;2023-08-07T08:30:38;18.10;1.00
18741;DHT22;9499;52.472;13.448;2023-08-07T08:33:04;18.10;1.00
18741;DHT22;9499;52.472;13.448;2023-08-07T08:35:31;18.00;1.00
18741;DHT22;9499;52.472;13.448;2023-08-07T08:37:58;17.90;1.00
18741;DHT22;9499;52.472;13.448;2023-08-07T08:40:24;17.80;1.00
18741;DHT22;9499;52.472;13.448;2023-08-07T08:42:55;17.80;1.00
18741;DHT22;9499;52.472;13.448;2023-08-07T08:45:24;17.90;1.00
18741;DHT22;9499;52.472;13.448;2023-08-07T08:47:55;17.90;1.00
18741;DHT22;9499;52.472;13.448;2023-08-07T08:50:26;18.00;1.00
18741;DHT22;9499;52.472;13.448;2023-08-07T08:52:56;18.10;1.00
18741;DHT22;9499;52.472;13.448;2023-08-07T08:55:23;18.20;1.00
18741;DHT22;9499;52.472;13.448;2023-08-07T08:57:49;18.30;1.00
18741;DHT22;9499;52.472;13.448;2023-08-07T09:00:17;18.30;99.90
18741;DHT22;9499;52.472;13.448;2023-08-07T09:02:47;18.40;99.90
18741;DHT22;9499;52.472;13.448;2023-08-07T09:05:17;18.40;99.90
18741;DHT22;9499;52.472;13.448;2023-08-07T09:07:45;18.40;99.90
18741;DHT22;9499;52.472;13.448;2023-08-07T09:10:12;18.50;99.90
18741;DHT22;9499;52.472;13.448;2023-08-07T09:12:40;18.50;99.90
18741;DHT22;9499;52.472;13.448;2023-08-07T09:15:09;18.60;99.90
18741;DHT22;9499;52.472;13.448;2023-08-07T09:17:39;18.60;99.90
18741;DHT22;9499;52.472;13.448;2023-08-07T09:20:07;18.70;99.90
18741;DHT22;9499;52.472;13.448;2023-08-07T09:22:37;18.80;99.90
18741;DHT22;9499;52.472;13.448;2023-08-07T09:25:07;18.70;1.00
18741;DHT22;9499;52.472;13.448;2023-08-07T09:27:35;18.50;1.00
18741;DHT22;9499;52.472;13.448;2023-08-07T09:30:03;18.30;1.00
18741;DHT22;9499;52.472;13.448;2023-08-07T09:32:31;18.10;1.00
18741;DHT22;9499;52.472;13.448;2023-08-07T09:34:58;17.90;1.00
18741;DHT22;9499;52.472;13.448;2023-08-07T09:37:26;17.90;1.00
18741;DHT22;9499;52.472;13.448;2023-08-07T09:39:54;17.90;1.00
18741;DHT22;9499;52.472;13.448;2023-08-07T09:42:21;18.00;1.00
18741;DHT22;9499;52.472;13.448;2023-08-07T09:44:47;18.10;1.00
18741;DHT22;9499;52.472;13.448;2023-08-07T09:47:17;18.10;1.00
18741;DHT22;9499;52.472;13.448;2023-08-07T09:49:45;18.20;1.00
18741;DHT22;9499;52.472;13.448;2023-08-07T09:52:14;18.30;1.00
18741;DHT22;9499;52.472;13.448;2023-08-07T09:54:41;18.30;1.00
18741;DHT22;9499;52.472;13.448;2023-08-07T09:57:10;18.40;1.00
18741;DHT22;9499;52.472;13.448;2023-08-07T09:59:37;18.40;1.00
18741;DHT22;9499;52.472;13.448;2023-08-07T10:02:04;18.50;1.00
18741;DHT22;9499;52.472;13.448;2023-08-07T10:04:31;18.50;1.00
18741;DHT22;9499;52.472;13.448;2023-08-07T10:06:59;18.50;1.00
18741;DHT22;9499;52.472;13.448;2023-08-07T10:09:28;18.60;1.00
18741;DHT22;9499;52.472;13.448;2023-08-07T10:11:55;18.60;99.90
18741;DHT22;9499;52.472;13.448;2023-08-07T10:14:23;18.70;1.00
18741;DHT22;9499;52.472;13.448;2023-08-07T10:16:52;18.70;99.90
18741;DHT22;9499;52.472;13.448;2023-08-07T10:19:19;18.90;99.90
18741;DHT22;9499;52.472;13.448;2023-08-07T10:21:46;18.90;99.90
18741;DHT22;9499;52.472;13.448;2023-08-07T10:24:13;19.00;1.00
18741;DHT22;9499;52.472;13.448;2023-08-07T10:26:44;18.90;99.90
18741;DHT22;9499;52.472;13.448;2023-08-07T10:29:15;18.90;99.90
18741;DHT22;9499;52.472;13.448;2023-08-07T10:31:46;19.00;1.00
18741;DHT22;9499;52.472;13.448;2023-08-07T10:34:14;19.10;99.90
18741;DHT22;9499;52.472;13.448;2023-08-07T10:36:40;19.20;99.90
18741;DHT22;9499;52.472;13.448;2023-08-07T10:39:07;19.20;99.90
18741;DHT22;9499;52.472;13.448;2023-08-07T10:41:42;19.20;99.90
18741;DHT22;9499;52.472;13.448;2023-08-07T10:44:17;19.20;99.90
18741;DHT22;9499;52.472;13.448;2023-08-07T10:46:52;19.30;99.90
18741;DHT22;9499;52.472;13.448;2023-08-07T10:49:32;19.20;1.00
18741;DHT22;9499;52.472;13.448;2023-08-07T10:52:03;19.30;1.00
18741;DHT22;9499;52.472;13.448;2023-08-07T10:54:29;19.30;1.00
18741;DHT22;9499;52.472;13.448;2023-08-07T10:56:56;19.40;1.00
18741;DHT22;9499;52.472;13.448;2023-08-07T10:59:22;19.40;1.00
18741;DHT22;9499;52.472;13.448;2023-08-07T11:01:54;19.50;99.90
18741;DHT22;9499;52.472;13.448;2023-08-07T11:04:22;19.40;1.00
18741;DHT22;9499;52.472;13.448;2023-08-07T11:06:50;19.40;99.90
18741;DHT22;9499;52.472;13.448;2023-08-07T11:09:17;19.40;1.00
18741;DHT22;9499;52.472;13.448;2023-08-07T11:11:45;19.40;1.00
18741;DHT22;9499;52.472;13.448;2023-08-07T11:14:14;19.20;1.00
18741;DHT22;9499;52.472;13.448;2023-08-07T11:16:42;19.10;1.00
18741;DHT22;9499;52.472;13.448;2023-08-07T11:19:11;18.90;1.00
18741;DHT22;9499;52.472;13.448;2023-08-07T11:21:38;18.80;1.00
18741;DHT22;9499;52.472;13.448;2023-08-07T11:24:04;18.70;1.00
18741;DHT22;9499;52.472;13.448;2023-08-07T11:26:31;18.60;1.00
18741;DHT22;9499;52.472;13.448;2023-08-07T11:28:58;18.60;40.40
18741;DHT22;9499;52.472;13.448;2023-08-07T11:31:25;18.70;47.90
18741;DHT22;9499;52.472;13.448;2023-08-07T11:33:54;18.80;1.00
18741;DHT22;9499;52.472;13.448;2023-08-07T11:36:24;18.70;1.00
18741;DHT22;9499;52.472;13.448;2023-08-07T11:38:50;18.60;1.00
18741;DHT22;9499;52.472;13.448;2023-08-07T11:41:18;18.60;1.00
18741;DHT22;9499;52.472;13.448;2023-08-07T11:43:45;18.70;9.10
18741;DHT22;9499;52.472;13.448;2023-08-07T11:46:13;18.70;1.00
18741;DHT22;9499;52.472;13.448;2023-08-07T11:48:42;18.70;99.90
18741;DHT22;9499;52.472;13.448;2023-08-07T11:51:09;18.80;99.90
18741;DHT22;9499;52.472;13.448;2023-08-07T11:53:38;18.70;99.90
18741;DHT22;9499;52.472;13.448;2023-08-07T11:56:06;18.60;1.00
18741;DHT22;9499;52.472;13.448;2023-08-07T11:58:36;18.60;1.00
18741;DHT22;9499;52.472;13.448;2023-08-07T12:01:05;18.70;99.90
18741;DHT22;9499;52.472;13.448;2023-08-07T12:03:34;18.80;99.90
18741;DHT22;9499;52.472;13.448;2023-08-07T12:06:05;19.10;38.70
18741;DHT22;9499;52.472;13.448;2023-08-07T12:08:33;19.10;1.00
18741;DHT22;9499;52.472;13.448;2023-08-07T12:11:02;19.20;1.00
18741;DHT22;9499;52.472;13.448;2023-08-07T12:13:30;19.40;1.00
18741;DHT22;9499;52.472;13.448;2023-08-07T12:16:01;19.40;99.90
18741;DHT22;9499;52.472;13.448;2023-08-07T12:18:29;19.40;93.30
18741;DHT22;9499;52.472;13.448;2023-08-07T12:20:57;19.60;1.00
18741;DHT22;9499;52.472;13.448;2023-08-07T12:23:24;19.60;1.00
18741;DHT22;9499;52.472;13.448;2023-08-07T12:25:51;19.60;1.00
18741;DHT22;9499;52.472;13.448;2023-08-07T12:28:20;19.60;13.60
18741;DHT22;9499;52.472;13.448;2023-08-07T12:30:48;19.60;1.00
18741;DHT22;9499;52.472;13.448;2023-08-07T12:33:14;19.60;99.90
18741;DHT22;9499;52.472;13.448;2023-08-07T12:35:41;19.50;66.40
18741;DHT22;9499;52.472;13.448;2023-08-07T12:38:10;19.50;99.90
18741;DHT22;9499;52.472;13.448;2023-08-07T12:40:39;19.40;99.90
18741;DHT22;9499;52.472;13.448;2023-08-07T12:43:06;19.30;1.00
18741;DHT22;9499;52.472;13.448;2023-08-07T12:45:34;19.20;1.00
18741;DHT22;9499;52.472;13.448;2023-08-07T12:48:01;19.30;1.00
18741;DHT22;9499;52.472;13.448;2023-08-07T12:50:28;19.30;1.00
18741;DHT22;9499;52.472;13.448;2023-08-07T12:52:55;19.50;99.90
18741;DHT22;9499;52.472;13.448;2023-08-07T12:55:22;19.50;1.00
18741;DHT22;9499;52.472;13.448;2023-08-07T12:57:49;19.50;99.90
18741;DHT22;9499;52.472;13.448;2023-08-07T13:00:16;19.50;1.00
18741;DHT22;9499;52.472;13.448;2023-08-07T13:02:45;19.50;1.00
18741;DHT22;9499;52.472;13.448;2023-08-07T13:05:12;19.30;99.90
18741;DHT22;9499;52.472;13.448;2023-08-07T13:07:40;19.00;99.90
18741;DHT22;9499;52.472;13.448;2023-08-07T13:10:08;18.60;1.00
18741;DHT22;9499;52.472;13.448;2023-08-07T13:12:36;18.00;1.00
18741;DHT22;9499;52.472;13.448;2023-08-07T13:15:03;17.70;1.00
18741;DHT22;9499;52.472;13.448;2023-08-07T13:17:31;17.60;1.00
18741;DHT22;9499;52.472;13.448;2023-08-07T13:19:59;17.60;1.20
18741;DHT22;9499;52.472;13.448;2023-08-07T13:22:29;17.90;1.30
18741;DHT22;9499;52.472;13.448;2023-08-07T13:24:55;18.30;1.00
18741;DHT22;9499;52.472;13.448;2023-08-07T13:27:22;18.60;1.00
18741;DHT22;9499;52.472;13.448;2023-08-07T13:29:49;18.80;1.00
18741;DHT22;9499;52.472;13.448;2023-08-07T13:32:15;18.80;1.00
18741;DHT22;9499;52.472;13.448;2023-08-07T13:34:44;18.70;1.00
18741;DHT22;9499;52.472;13.448;2023-08-07T13:37:12;18.70;1.00
18741;DHT22;9499;52.472;13.448;2023-08-07T13:39:39;18.70;1.00
18741;DHT22;9499;52.472;13.448;2023-08-07T13:42:06;18.70;1.00
18741;DHT22;9499;52.472;13.448;2023-08-07T13:44:33;18.80;1.00
18741;DHT22;9499;52.472;13.448;2023-08-07T13:47:00;18.80;1.00
18741;DHT22;9499;52.472;13.448;2023-08-07T13:49:26;18.80;1.00
18741;DHT22;9499;52.472;13.448;2023-08-07T13:51:54;19.00;1.00
18741;DHT22;9499;52.472;13.448;2023-08-07T13:54:24;19.10;19.10
18741;DHT22;9499;52.472;13.448;2023-08-07T13:56:50;19.20;24.70
18741;DHT22;9499;52.472;13.448;2023-08-07T13:59:17;19.40;1.00
18741;DHT22;9499;52.472;13.448;2023-08-07T14:01:43;19.40;1.00
18741;DHT22;9499;52.472;13.448;2023-08-07T14:04:10;19.50;99.90
18741;DHT22;9499;52.472;13.448;2023-08-07T14:06:38;19.50;99.60
18741;DHT22;9499;52.472;13.448;2023-08-07T14:09:06;19.50;99.90
18741;DHT22;9499;52.472;13.448;2023-08-07T14:11:36;19.60;99.90
18741;DHT22;9499;52.472;13.448;2023-08-07T14:14:02;19.60;1.00
18741;DHT22;9499;52.472;13.448;2023-08-07T14:16:29;19.70;99.90
18741;DHT22;9499;52.472;13.448;2023-08-07T14:18:56;19.70;99.90
18741;DHT22;9499;52.472;13.448;2023-08-07T14:21:23;19.70;99.90
18741;DHT22;9499;52.472;13.448;2023-08-07T14:23:50;19.70;99.90
18741;DHT22;9499;52.472;13.448;2023-08-07T14:26:16;19.70;40.30
18741;DHT22;9499;52.472;13.448;2023-08-07T14:28:47;19.70;99.90
18741;DHT22;9499;52.472;13.448;2023-08-07T14:31:13;19.70;99.90
18741;DHT22;9499;52.472;13.448;2023-08-07T14:33:40;19.70;99.90
18741;DHT22;9499;52.472;13.448;2023-08-07T14:36:09;19.70;99.90
18741;DHT22;9499;52.472;13.448;2023-08-07T14:38:36;19.60;28.90
18741;DHT22;9499;52.472;13.448;2023-08-07T14:41:05;19.40;99.90
18741;DHT22;9499;52.472;13.448;2023-08-07T14:43:33;19.40;1.00
18741;DHT22;9499;52.472;13.448;2023-08-07T14:46:01;19.30;1.00
18741;DHT22;9499;52.472;13.448;2023-08-07T14:48:27;19.40;1.00
18741;DHT22;9499;52.472;13.448;2023-08-07T14:50:54;19.40;1.00
18741;DHT22;9499;52.472;13.448;2023-08-07T14:53:21;19.50;1.00
18741;DHT22;9499;52.472;13.448;2023-08-07T14:55:48;19.60;1.00
18741;DHT22;9499;52.472;13.448;2023-08-07T14:58:14;19.60;1.00
18741;DHT22;9499;52.472;13.448;2023-08-07T15:00:41;19.60;1.00
18741;DHT22;9499;52.472;13.448;2023-08-07T15:03:08;19.50;1.00
18741;DHT22;9499;52.472;13.448;2023-08-07T15:05:35;19.50;1.00
18741;DHT22;9499;52.472;13.448;2023-08-07T15:08:02;19.50;1.00
18741;DHT22;9499;52.472;13.448;2023-08-07T15:10:29;19.40;1.00
18741;DHT22;9499;52.472;13.448;2023-08-07T15:12:55;19.40;1.00
18741;DHT22;9499;52.472;13.448;2023-08-07T15:15:22;19.50;1.00
18741;DHT22;9499;52.472;13.448;2023-08-07T15:17:49;19.50;1.00
18741;DHT22;9499;52.472;13.448;2023-08-07T15:20:17;19.50;1.00
18741;DHT22;9499;52.472;13.448;2023-08-07T15:22:45;19.50;1.00
18741;DHT22;9499;52.472;13.448;2023-08-07T15:25:12;19.50;1.00
18741;DHT22;9499;52.472;13.448;2023-08-07T15:27:38;19.50;1.00
18741;DHT22;9499;52.472;13.448;2023-08-07T15:30:06;19.50;99.90
18741;DHT22;9499;52.472;13.448;2023-08-07T15:32:33;19.50;99.90
18741;DHT22;9499;52.472;13.448;2023-08-07T15:35:00;19.50;1.00
18741;DHT22;9499;52.472;13.448;2023-08-07T15:37:28;19.40;1.00
18741;DHT22;9499;52.472;13.448;2023-08-07T15:39:54;19.40;1.00